Terminal Aerodrome Forecast
Issued by NWS Twin Cities, MN

Home | Current Version | Previous Version | Graphics & Text | Print | Product List | Glossary On
Versions: 1 2 3 4 5 6 7 8 9 10 11 12 13 14 15 16 17 18 19 20 21 22 23 24
000
FTUS43 KMPX 280111 AAA
TAFSTC
TAF AMD
KSTC 280111Z 2801/2824 10006KT P6SM BKN007 OVC015
     FM280300 VRB03KT 2SM BR OVC007
     FM281100 02004KT 4SM BR OVC008
     FM281400 36003KT 5SM -DZ BR OVC015 PROB30 2818/2822 4SM -SHRA
      BR BKN015=

USA.gov is the U.S. government's official web portal to all federal, state and local government web resources and services.